LFAT Airport Information

Runway Information
Runway 13 Length 6070 ft width 131 ft Elevation 19 ft Threshold N/A Heading 133
Runway 31 Length 6070 ft Width 131 ft Elevation 16 ft Threshold 492 ft Heading 313
Runway 06 Length 0 ft width 0 ft Elevation 36 ft Threshold N/A Heading 0
Runway 24 Length 0 ft Width 0 ft Elevation 16 ft Threshold N/A Heading 0
Airport Frequencies
Type APP Name LILLE APP Frequency 120.275 MHZ
Type ATIS Name ATIS Frequency 123.125 MHZ
Type GND Name GND Frequency 125.3 MHZ
Type TWR Name TWR Frequency 118.45 MHZ
Airport Navaids
Airport Weather Information & NOTAM
ADDS - METARS form results

(1608 UTC 07 December 2022)
Data provider http://aviationweather.gov/metar/data/
 
METAR text: LFAT 071600Z AUTO 04001KT 9999 BKN016 OVC027 05/03 Q1018 NOSIG
Conditions at: LFAT (LE TOUQUET/P. PL, FR) observed 1600 UTC 07 December 2022
Temperature: 5.0°C (41°F)
Dewpoint: 3.0°C (37°F) [RH = 87%]
Pressure (altimeter): 30.06 inches Hg (1018.0 mb)
Winds: from the NE (40 degrees) at 1 MPH (1 knots; 0.5 m/s)
Visibility: 6 or more miles (10+ km)
Ceiling: 1600 feet AGL
Clouds: broken clouds at 1600 feet AGL
overcast cloud deck at 2700 feet AGL
Weather: no significant weather observed at this time

METAR text: LFAT 071530Z AUTO VRB01KT 9999 BKN017 BKN027 OVC032 05/03 Q1018 NOSIG
Conditions at: LFAT (LE TOUQUET/P. PL, FR) observed 1530 UTC 07 December 2022
Temperature: 5.0°C (41°F)
Dewpoint: 3.0°C (37°F) [RH = 87%]
Pressure (altimeter): 30.06 inches Hg (1018.0 mb)
Winds: variable direction winds at 1 MPH (1 knots; 0.5 m/s)
Visibility: 6 or more miles (10+ km)
Ceiling: 1700 feet AGL
Clouds: broken clouds at 1700 feet AGL
broken clouds at 2700 feet AGL
overcast cloud deck at 3200 feet AGL
Weather: no significant weather observed at this time

Forecast for: LFAT (LE TOUQUET/P. PL, FR)
Text: TAF LFAT 071400Z 0715/0724 35010KT 9999 BKN018 BKN025
Forecast period: 1500 to 1800 UTC 07 December 2022
Forecast type: FROM: standard forecast or significant change
Winds: from the N (350 degrees) at 12 MPH (10 knots; 5.1 m/s)
Visibility: 6 or more miles (10+ km)
Ceiling: 1800 feet AGL
Clouds: broken clouds at 1800 feet AGL
broken clouds at 2500 feet AGL
Weather: no significant weather forecast for this period
Text: BECMG 0718/0720 15005KT 2000 BR BKN003
Forecast period: 1800 UTC 07 December 2022 to 0000 UTC 08 December 2022
Forecast type: BECOMING: Conditions expected to become as follows by 2000 UTC 07 December 2022
Winds: from the SSE (150 degrees) at 6 MPH (5 knots; 2.6 m/s)
Visibility: 1.24 miles (2.00 km)
Ceiling: 300 feet AGL
Clouds: broken clouds at 300 feet AGL
Weather: BR  (mist)
Text: TEMPO 0720/0724 0500 FG OVC001
Forecast period: 2000 UTC 07 December 2022 to 0000 UTC 08 December 2022
Forecast type: TEMPORARY: The following changes expected for less than half the time period
Visibility: 0.31 miles (0.50 km)
Ceiling: 100 feet AGL
Clouds: overcast cloud deck at 100 feet AGL
Weather: FG  (fog)